Aurora, Colorado
Current Conditions -  °F | °C
As of 1:58 PM on Friday 19 Dec 2014 (Local Time) from KBKF Reporting Station
Few Clouds Few Clouds  
Wind Chill:   Ceiling: Unl
Heat Index:   Visibility: 10mi
Dew Point: -13°   Wind: 7mph
Humidity: 23%   Direction: NA
Pressure: 30"   Gusts: NA
Location:  39.69°N, 104.86°W
Report Text: KBKF 192058Z VRB06KT 10SM FEW070 FEW220 07/M13 A3000 RMK AO2A SLP162 T00721131 57027
Loading
Personal Weather Stations






























Interactive Weather Map New forecast layout! Learn more

10-Day Weather Forecast

Advertisements
Track Severe Weather on mobile